Time;durP1;ratioP1;P1;durP2;ratioP2;P2;SDS_P1;SDS_P2;PMS_P1;PMS_P2;Temp;Humidity;BMP_temperature;BMP_pressure;BME280_temperature;BME280_humidity;BME280_pressure;Samples;Min_cycle;Max_cycle;Signal;HPM_P1;HPM_P2
2023/06/28 00:00:12;;;;;;;26.97;13.73;;;;;;;;;;4994754;28;20018;-66
2023/06/28 00:02:38;;;;;;;26.27;13.87;;;;;;;;;;4994963;28;20019;-66
2023/06/28 00:05:03;;;;;;;24.33;12.77;;;;;;;;;;4989352;28;20034;-67
2023/06/28 00:07:29;;;;;;;24.30;13.27;;;;;;;;;;4992428;28;20129;-67
2023/06/28 00:09:54;;;;;;;32.33;13.97;;;;;;;;;;4990934;28;20044;-67
2023/06/28 00:12:21;;;;;;;31.23;14.33;;;;;;;;;;4993258;28;20072;-67
2023/06/28 00:14:46;;;;;;;29.23;14.97;;;;;;;;;;4994734;28;20045;-67
2023/06/28 00:17:11;;;;;;;26.87;15.20;;;;;;;;;;4994738;28;20015;-67
2023/06/28 00:19:44;;;;;;;29.73;14.53;;;;;;;;;;4994246;28;20032;-67
2023/06/28 00:22:09;;;;;;;32.37;15.67;;;;;;;;;;4993754;28;20034;-68
2023/06/28 00:24:34;;;;;;;34.87;15.97;;;;;;;;;;4994002;28;20050;-67
2023/06/28 00:27:00;;;;;;;34.50;15.00;;;;;;;;;;4992639;28;20487;-68
2023/06/28 00:29:25;;;;;;;29.10;16.50;;;;;;;;;;4992294;28;20019;-68
2023/06/28 00:31:50;;;;;;;30.47;16.90;;;;;;;;;;4993754;28;20050;-68
2023/06/28 00:34:15;;;;;;;32.37;16.77;;;;;;;;;;4991185;28;20026;-66
2023/06/28 00:36:41;;;;;;;36.23;17.10;;;;;;;;;;4993480;28;20030;-67
2023/06/28 00:39:06;;;;;;;35.23;17.70;;;;;;;;;;4994257;28;20463;-67
2023/06/28 00:41:31;;;;;;;36.07;18.20;;;;;;;;;;4992427;28;20030;-66
2023/06/28 00:43:57;;;;;;;32.80;18.10;;;;;;;;;;4992043;28;20368;-66
2023/06/28 00:46:22;;;;;;;34.17;17.27;;;;;;;;;;4993992;28;20022;-67
2023/06/28 00:48:47;;;;;;;40.07;17.67;;;;;;;;;;4993525;28;20045;-66
2023/06/28 00:51:13;;;;;;;36.07;18.13;;;;;;;;;;4991681;28;20050;-67
2023/06/28 00:53:39;;;;;;;37.17;19.27;;;;;;;;;;4992514;28;20025;-66
2023/06/28 00:56:04;;;;;;;34.07;17.60;;;;;;;;;;4991957;28;20042;-66
2023/06/28 00:58:29;;;;;;;35.67;17.43;;;;;;;;;;4991490;28;20391;-66
2023/06/28 01:04:00;;;;;;;36.87;18.03;;;;;;;;;;5008801;28;20024;-66
2023/06/28 01:06:26;;;;;;;35.87;18.33;;;;;;;;;;5014396;28;20022;-66
2023/06/28 01:08:51;;;;;;;42.00;18.63;;;;;;;;;;5016897;28;20033;-66
2023/06/28 01:11:17;;;;;;;40.33;17.83;;;;;;;;;;5015389;28;20006;-67
2023/06/28 01:13:42;;;;;;;37.17;18.63;;;;;;;;;;5015083;28;20022;-65
2023/06/28 01:16:08;;;;;;;39.83;19.40;;;;;;;;;;5016757;28;20034;-66
2023/06/28 01:18:33;;;;;;;36.13;18.93;;;;;;;;;;5017641;28;20017;-66
2023/06/28 01:21:01;;;;;;;40.07;19.30;;;;;;;;;;5017866;28;20095;-66
2023/06/28 01:23:26;;;;;;;35.20;19.30;;;;;;;;;;5017915;28;20068;-67
2023/06/28 01:25:52;;;;;;;33.60;18.53;;;;;;;;;;5017835;28;20014;-67
2023/06/28 01:28:19;;;;;;;41.63;19.53;;;;;;;;;;5016121;28;20026;-67
2023/06/28 01:30:48;;;;;;;35.90;19.30;;;;;;;;;;5016392;28;20047;-66
2023/06/28 01:33:14;;;;;;;37.83;18.20;;;;;;;;;;5014539;28;20040;-66
2023/06/28 01:35:39;;;;;;;35.93;18.80;;;;;;;;;;5015875;28;20058;-66
2023/06/28 01:38:05;;;;;;;39.90;18.43;;;;;;;;;;5013605;28;20041;-66
2023/06/28 01:40:35;;;;;;;43.63;18.90;;;;;;;;;;5017079;28;20081;-66
2023/06/28 01:43:01;;;;;;;36.27;20.13;;;;;;;;;;5013746;28;20033;-66
2023/06/28 01:45:26;;;;;;;42.37;19.77;;;;;;;;;;5014802;28;20022;-66
2023/06/28 01:47:52;;;;;;;42.03;19.57;;;;;;;;;;5017352;28;20049;-66
2023/06/28 01:50:18;;;;;;;44.20;20.57;;;;;;;;;;5017157;28;20026;-66
2023/06/28 01:52:44;;;;;;;35.23;18.87;;;;;;;;;;5015465;28;20057;-68
2023/06/28 01:55:10;;;;;;;42.10;20.80;;;;;;;;;;5016045;28;20023;-66
2023/06/28 01:57:36;;;;;;;40.77;19.43;;;;;;;;;;5016781;28;20017;-66
2023/06/28 02:00:07;;;;;;;39.70;21.30;;;;;;;;;;5017676;28;20010;-66
2023/06/28 02:02:33;;;;;;;;;;;;;;;;;;5014645;28;20109;-66
2023/06/28 02:04:58;;;;;;;40.93;20.40;;;;;;;;;;5013939;28;19977;-67
2023/06/28 02:07:23;;;;;;;43.93;21.63;;;;;;;;;;5016043;28;20068;-66
2023/06/28 02:09:49;;;;;;;48.23;23.23;;;;;;;;;;5016405;28;20013;-67
2023/06/28 02:12:14;;;;;;;48.27;22.87;;;;;;;;;;5016504;28;20033;-67
2023/06/28 02:14:39;;;;;;;45.07;22.27;;;;;;;;;;5017233;28;20006;-67
2023/06/28 02:17:05;;;;;;;47.57;23.83;;;;;;;;;;5015916;28;20038;-66
2023/06/28 02:19:33;;;;;;;41.93;22.40;;;;;;;;;;5017158;28;20069;-67
2023/06/28 02:21:58;;;;;;;44.07;22.17;;;;;;;;;;5015947;28;20017;-67
2023/06/28 02:24:25;;;;;;;45.47;23.40;;;;;;;;;;5015637;28;20062;-67
2023/06/28 02:26:50;;;;;;;42.50;22.53;;;;;;;;;;5012364;28;20419;-67
2023/06/28 02:29:15;;;;;;;44.23;22.77;;;;;;;;;;4993318;28;20141;-67
2023/06/28 02:31:40;;;;;;;43.73;23.17;;;;;;;;;;4991412;28;20026;-67
2023/06/28 02:34:06;;;;;;;44.50;22.43;;;;;;;;;;4991372;28;20435;-66
2023/06/28 02:36:31;;;;;;;46.47;23.37;;;;;;;;;;4991345;28;20026;-66
2023/06/28 02:38:56;;;;;;;46.97;24.07;;;;;;;;;;4991461;28;20022;-66
2023/06/28 02:41:22;;;;;;;49.03;23.90;;;;;;;;;;4990300;28;20033;-67
2023/06/28 02:43:47;;;;;;;44.17;22.33;;;;;;;;;;4990852;28;20486;-66
2023/06/28 02:46:12;;;;;;;43.70;22.00;;;;;;;;;;4994307;28;20030;-61
2023/06/28 02:48:38;;;;;;;42.37;21.87;;;;;;;;;;4995224;28;20061;-61
2023/06/28 02:51:03;;;;;;;44.00;22.63;;;;;;;;;;4995986;28;20037;-61
2023/06/28 02:53:28;;;;;;;41.43;22.20;;;;;;;;;;4993724;28;20463;-61
2023/06/28 02:55:53;;;;;;;42.57;21.90;;;;;;;;;;4996190;28;20113;-60
2023/06/28 02:58:19;;;;;;;43.97;21.03;;;;;;;;;;4993867;28;20030;-61
2023/06/28 03:00:46;;;;;;;39.40;21.80;;;;;;;;;;4993344;28;20038;-61
2023/06/28 03:03:13;;;;;;;38.93;20.90;;;;;;;;;;4994277;28;20026;-60
2023/06/28 03:05:39;;;;;;;36.93;20.00;;;;;;;;;;4993653;28;20374;-61
2023/06/28 03:08:04;;;;;;;35.77;20.60;;;;;;;;;;4996043;28;20441;-61
2023/06/28 03:10:30;;;;;;;37.50;18.67;;;;;;;;;;4993964;28;20026;-61
2023/06/28 03:12:55;;;;;;;35.70;19.17;;;;;;;;;;4992730;28;20109;-61
2023/06/28 03:15:21;;;;;;;37.87;19.33;;;;;;;;;;4992243;28;20034;-61
2023/06/28 03:17:46;;;;;;;36.27;18.17;;;;;;;;;;4995063;28;20034;-61
2023/06/28 03:20:11;;;;;;;42.67;18.57;;;;;;;;;;4995645;28;20026;-61
2023/06/28 03:22:37;;;;;;;37.97;19.17;;;;;;;;;;4995565;28;20049;-61
2023/06/28 03:25:03;;;;;;;32.63;17.43;;;;;;;;;;4995243;28;20046;-61
2023/06/28 03:27:28;;;;;;;30.23;17.13;;;;;;;;;;4995073;28;20114;-61
2023/06/28 03:29:53;;;;;;;29.63;16.43;;;;;;;;;;4993992;28;20113;-61
2023/06/28 03:32:19;;;;;;;33.27;15.97;;;;;;;;;;4993746;28;20497;-62
2023/06/28 03:34:44;;;;;;;30.50;15.43;;;;;;;;;;4992552;28;20041;-61
2023/06/28 03:37:10;;;;;;;32.13;15.50;;;;;;;;;;4993880;28;20061;-61
2023/06/28 03:39:36;;;;;;;29.23;15.27;;;;;;;;;;4993705;28;20022;-61
2023/06/28 03:42:01;;;;;;;22.07;14.50;;;;;;;;;;4993606;28;20040;-61
2023/06/28 03:44:26;;;;;;;25.70;14.10;;;;;;;;;;4993550;28;20093;-61
2023/06/28 03:46:51;;;;;;;25.03;14.40;;;;;;;;;;4993935;28;20474;-60
2023/06/28 03:49:17;;;;;;;23.47;12.73;;;;;;;;;;4993609;28;20035;-60
2023/06/28 03:51:42;;;;;;;17.73;10.97;;;;;;;;;;4994429;28;20011;-60
2023/06/28 03:54:07;;;;;;;17.30;9.30;;;;;;;;;;4994518;28;20075;-60
2023/06/28 03:56:32;;;;;;;19.10;8.07;;;;;;;;;;4992591;28;20037;-60
2023/06/28 03:58:58;;;;;;;20.47;8.27;;;;;;;;;;4986185;28;20060;-61
2023/06/28 04:01:23;;;;;;;18.33;8.63;;;;;;;;;;4994864;28;20037;-61
2023/06/28 04:03:48;;;;;;;15.33;7.57;;;;;;;;;;4992917;28;20033;-61
2023/06/28 04:06:14;;;;;;;14.07;6.90;;;;;;;;;;4992631;28;20113;-60
2023/06/28 04:08:39;;;;;;;17.43;6.23;;;;;;;;;;4994035;28;20455;-60
2023/06/28 04:11:04;;;;;;;12.00;5.57;;;;;;;;;;4994801;28;20022;-60
2023/06/28 04:13:29;;;;;;;13.33;5.17;;;;;;;;;;4994160;28;20037;-60
2023/06/28 04:15:55;;;;;;;13.68;4.85;;;;;;;;;;4993615;28;20053;-60
2023/06/28 04:18:20;;;;;;;13.57;4.95;;;;;;;;;;4998372;28;20034;-60
2023/06/28 04:20:45;;;;;;;9.30;4.32;;;;;;;;;;5003115;28;20118;-59
2023/06/28 04:23:11;;;;;;;11.32;4.63;;;;;;;;;;5014978;28;20054;-59
2023/06/28 04:25:37;;;;;;;14.07;4.82;;;;;;;;;;5015578;28;20099;-60
2023/06/28 04:28:03;;;;;;;15.15;4.95;;;;;;;;;;5007404;28;20029;-60
2023/06/28 04:30:28;;;;;;;10.32;4.53;;;;;;;;;;5015485;28;20117;-61
2023/06/28 04:32:53;;;;;;;10.95;4.63;;;;;;;;;;5015417;28;20390;-60
2023/06/28 04:35:21;;;;;;;8.15;4.38;;;;;;;;;;4995434;28;20022;-60
2023/06/28 04:37:47;;;;;;;10.93;4.50;;;;;;;;;;4999815;28;20029;-61
2023/06/28 04:40:13;;;;;;;13.07;4.40;;;;;;;;;;5015206;28;20033;-61
2023/06/28 04:42:38;;;;;;;15.75;5.07;;;;;;;;;;5005583;28;20026;-60
2023/06/28 04:45:06;;;;;;;10.10;4.55;;;;;;;;;;5005768;28;20042;-60
2023/06/28 04:47:31;;;;;;;13.45;4.38;;;;;;;;;;4998570;28;20382;-60
2023/06/28 04:49:56;;;;;;;13.43;4.68;;;;;;;;;;4994514;28;20026;-61
2023/06/28 04:52:23;;;;;;;11.73;4.63;;;;;;;;;;4994894;28;20018;-61
2023/06/28 04:54:48;;;;;;;12.13;4.38;;;;;;;;;;4993058;28;20073;-60
2023/06/28 04:57:15;;;;;;;8.90;4.63;;;;;;;;;;4993967;28;20033;-61
2023/06/28 04:59:40;;;;;;;11.48;4.45;;;;;;;;;;4993061;28;20026;-60
2023/06/28 05:02:05;;;;;;;13.18;5.20;;;;;;;;;;4991500;28;20029;-59
2023/06/28 05:04:32;;;;;;;9.77;4.53;;;;;;;;;;4996656;28;20041;-59
2023/06/28 05:07:01;;;;;;;13.77;4.30;;;;;;;;;;4992944;28;20019;-59
2023/06/28 05:09:26;;;;;;;14.38;4.60;;;;;;;;;;4992444;28;20033;-59
2023/06/28 05:11:51;;;;;;;16.05;3.78;;;;;;;;;;4992547;28;20027;-60
2023/06/28 05:14:16;;;;;;;10.55;3.63;;;;;;;;;;4997965;28;20026;-59
2023/06/28 05:16:42;;;;;;;10.98;3.85;;;;;;;;;;4993725;28;20387;-59
2023/06/28 05:19:07;;;;;;;11.80;3.85;;;;;;;;;;4994564;28;20038;-59
2023/06/28 05:21:32;;;;;;;13.90;3.50;;;;;;;;;;4993830;28;20379;-60
2023/06/28 05:23:58;;;;;;;9.93;3.80;;;;;;;;;;4995182;28;20050;-59
2023/06/28 05:26:23;;;;;;;13.70;3.42;;;;;;;;;;5008191;28;20033;-60
2023/06/28 05:28:48;;;;;;;10.80;3.60;;;;;;;;;;4993760;28;20041;-59
2023/06/28 05:31:14;;;;;;;9.50;3.28;;;;;;;;;;4991974;28;20033;-60
2023/06/28 05:33:40;;;;;;;7.53;3.17;;;;;;;;;;4998097;28;20470;-60
2023/06/28 05:36:06;;;;;;;10.95;4.20;;;;;;;;;;4991640;28;20026;-60
2023/06/28 05:38:31;;;;;;;12.02;4.03;;;;;;;;;;4994316;28;20368;-60
2023/06/28 05:41:10;;;;;;;9.30;4.28;;;;;;;;;;4993291;28;20027;-60
2023/06/28 05:43:35;;;;;;;9.40;3.92;;;;;;;;;;4992297;28;20026;-60
2023/06/28 05:46:01;;;;;;;12.82;4.15;;;;;;;;;;4987463;28;20038;-60
2023/06/28 05:48:26;;;;;;;9.60;3.67;;;;;;;;;;4979201;28;20042;-61
2023/06/28 05:50:51;;;;;;;12.52;4.35;;;;;;;;;;4988966;28;20113;-61
2023/06/28 05:53:16;;;;;;;11.88;4.70;;;;;;;;;;4992288;28;20022;-60
2023/06/28 05:55:42;;;;;;;12.90;4.63;;;;;;;;;;4976179;28;20050;-60
2023/06/28 05:58:07;;;;;;;8.38;4.20;;;;;;;;;;5010412;28;20034;-60
2023/06/28 06:00:32;;;;;;;13.05;4.70;;;;;;;;;;5001683;28;20022;-60
2023/06/28 06:02:57;;;;;;;12.80;4.78;;;;;;;;;;4999296;28;20026;-60
2023/06/28 06:05:23;;;;;;;10.52;3.92;;;;;;;;;;5011324;28;20526;-61
2023/06/28 06:07:48;;;;;;;11.65;4.20;;;;;;;;;;5009943;28;20038;-60
2023/06/28 06:10:13;;;;;;;11.23;4.40;;;;;;;;;;5008497;28;20136;-60
2023/06/28 06:12:39;;;;;;;10.90;3.90;;;;;;;;;;5011863;28;20430;-60
2023/06/28 06:15:05;;;;;;;10.48;3.67;;;;;;;;;;5011299;28;20587;-60
2023/06/28 06:17:30;;;;;;;14.05;4.10;;;;;;;;;;5010958;28;20037;-60
2023/06/28 06:19:56;;;;;;;17.48;4.35;;;;;;;;;;5009257;28;20363;-60
2023/06/28 06:22:21;;;;;;;13.05;3.45;;;;;;;;;;5011589;28;20169;-59
2023/06/28 06:24:46;;;;;;;10.52;3.60;;;;;;;;;;5010788;28;20057;-59
2023/06/28 06:27:11;;;;;;;9.30;3.00;;;;;;;;;;5007877;28;20030;-59
2023/06/28 06:29:37;;;;;;;9.82;3.20;;;;;;;;;;4993974;28;20031;-60
2023/06/28 06:32:02;;;;;;;9.10;2.97;;;;;;;;;;4993582;28;20126;-59
2023/06/28 06:34:27;;;;;;;9.65;3.42;;;;;;;;;;4993802;28;20018;-60
2023/06/28 06:36:54;;;;;;;9.80;3.60;;;;;;;;;;4993290;28;20479;-59
2023/06/28 06:39:20;;;;;;;8.43;3.63;;;;;;;;;;4993803;28;20140;-60
2023/06/28 06:41:45;;;;;;;12.02;3.85;;;;;;;;;;4993866;28;20034;-59
2023/06/28 06:44:10;;;;;;;15.80;3.95;;;;;;;;;;4993529;28;20025;-59
2023/06/28 06:46:36;;;;;;;10.63;3.25;;;;;;;;;;4993386;28;20018;-59
2023/06/28 06:49:01;;;;;;;12.05;3.35;;;;;;;;;;4993752;28;20019;-60
2023/06/28 06:51:26;;;;;;;8.40;2.88;;;;;;;;;;4993404;28;20130;-60
2023/06/28 06:53:52;;;;;;;13.45;3.78;;;;;;;;;;4992889;28;20029;-59
2023/06/28 06:56:21;;;;;;;13.85;3.80;;;;;;;;;;4992633;28;20069;-59
2023/06/28 06:58:47;;;;;;;8.80;3.03;;;;;;;;;;4992964;28;20026;-59
2023/06/28 07:01:12;;;;;;;10.13;2.97;;;;;;;;;;4993436;28;20022;-59
2023/06/28 07:03:37;;;;;;;8.23;3.08;;;;;;;;;;4993499;28;20022;-59
2023/06/28 07:06:03;;;;;;;8.68;3.72;;;;;;;;;;4993530;28;20026;-59
2023/06/28 07:08:28;;;;;;;14.65;3.28;;;;;;;;;;4993336;28;20076;-59
2023/06/28 07:10:53;;;;;;;8.75;2.95;;;;;;;;;;4992638;28;20026;-59
2023/06/28 07:13:19;;;;;;;11.00;2.80;;;;;;;;;;4990492;28;20022;-59
2023/06/28 07:15:44;;;;;;;12.60;3.08;;;;;;;;;;4993507;28;20092;-60
2023/06/28 07:18:09;;;;;;;9.50;3.13;;;;;;;;;;4993580;28;20480;-60
2023/06/28 07:20:35;;;;;;;13.80;3.92;;;;;;;;;;4993526;28;20068;-59
2023/06/28 07:23:00;;;;;;;9.27;2.42;;;;;;;;;;4993029;28;20034;-59
2023/06/28 07:25:25;;;;;;;6.53;2.45;;;;;;;;;;4993413;28;20109;-59
2023/06/28 07:27:51;;;;;;;6.60;2.30;;;;;;;;;;4992951;28;20018;-60
2023/06/28 07:30:16;;;;;;;8.98;2.40;;;;;;;;;;4993404;28;20014;-59
2023/06/28 07:32:41;;;;;;;7.43;2.40;;;;;;;;;;4996112;28;20058;-59
2023/06/28 07:35:07;;;;;;;9.95;3.03;;;;;;;;;;4996635;28;20110;-59
2023/06/28 07:37:32;;;;;;;12.75;2.45;;;;;;;;;;4996033;28;20011;-60
2023/06/28 07:40:00;;;;;;;9.27;2.15;;;;;;;;;;4996580;28;20025;-59
2023/06/28 07:42:27;;;;;;;9.88;2.83;;;;;;;;;;4996789;28;20541;-60
2023/06/28 07:44:52;;;;;;;9.20;2.47;;;;;;;;;;4995527;28;20026;-61
2023/06/28 07:47:17;;;;;;;8.60;2.55;;;;;;;;;;4996404;28;20022;-61
2023/06/28 07:49:43;;;;;;;10.00;2.60;;;;;;;;;;4996434;28;20046;-61
2023/06/28 07:52:09;;;;;;;8.98;2.67;;;;;;;;;;4996382;28;20097;-61
2023/06/28 07:54:34;;;;;;;7.78;2.65;;;;;;;;;;4996373;28;20030;-61
2023/06/28 07:56:59;;;;;;;8.05;2.72;;;;;;;;;;4996608;28;20080;-60
2023/06/28 07:59:25;;;;;;;8.88;3.22;;;;;;;;;;4996122;28;20025;-61
2023/06/28 08:01:50;;;;;;;7.95;2.83;;;;;;;;;;4995837;28;20026;-62
2023/06/28 08:04:20;;;;;;;8.90;2.50;;;;;;;;;;4996310;28;20029;-61
2023/06/28 08:06:45;;;;;;;7.13;2.10;;;;;;;;;;4976844;28;20034;-61
2023/06/28 08:09:11;;;;;;;8.18;2.13;;;;;;;;;;4976543;28;20379;-61
2023/06/28 08:11:36;;;;;;;7.75;2.10;;;;;;;;;;4983122;28;20044;-61
2023/06/28 08:14:02;;;;;;;8.48;2.70;;;;;;;;;;4995885;28;20053;-61
2023/06/28 08:16:27;;;;;;;8.07;3.17;;;;;;;;;;4995869;28;20482;-62
2023/06/28 08:18:52;;;;;;;8.00;2.67;;;;;;;;;;4995182;28;20053;-61
2023/06/28 08:21:18;;;;;;;7.93;2.80;;;;;;;;;;4995980;28;20022;-61
2023/06/28 08:23:43;;;;;;;7.25;2.25;;;;;;;;;;4995894;28;20213;-62
2023/06/28 08:26:08;;;;;;;8.73;2.90;;;;;;;;;;4996093;28;20386;-62
2023/06/28 08:28:33;;;;;;;8.27;3.28;;;;;;;;;;4995971;28;20018;-61
2023/06/28 08:30:59;;;;;;;8.95;3.20;;;;;;;;;;4995871;28;20022;-62
2023/06/28 08:33:24;;;;;;;6.05;2.65;;;;;;;;;;4995754;28;20050;-63
2023/06/28 08:35:50;;;;;;;5.65;2.13;;;;;;;;;;4995267;28;20371;-61
2023/06/28 08:38:15;;;;;;;6.82;2.22;;;;;;;;;;4995394;28;20470;-62
2023/06/28 08:40:40;;;;;;;5.82;2.45;;;;;;;;;;4995739;28;20029;-61
2023/06/28 08:43:06;;;;;;;8.77;2.63;;;;;;;;;;4993838;28;20026;-60
2023/06/28 08:45:35;;;;;;;8.95;2.60;;;;;;;;;;4994125;28;20026;-61
2023/06/28 08:48:01;;;;;;;4.10;2.15;;;;;;;;;;4990793;28;20030;-60
2023/06/28 08:50:26;;;;;;;7.22;2.58;;;;;;;;;;4994578;28;20026;-60
2023/06/28 08:52:52;;;;;;;4.95;2.38;;;;;;;;;;4993415;28;20485;-61
2023/06/28 08:55:20;;;;;;;10.77;2.47;;;;;;;;;;4994753;28;20061;-60
2023/06/28 08:57:46;;;;;;;6.95;2.40;;;;;;;;;;4995355;28;20450;-61
2023/06/28 09:00:12;;;;;;;8.82;2.30;;;;;;;;;;4994843;28;20383;-62
2023/06/28 09:02:40;;;;;;;6.30;2.40;;;;;;;;;;4994857;28;20132;-62
2023/06/28 09:05:06;;;;;;;5.97;2.08;;;;;;;;;;4994891;28;20025;-60
2023/06/28 09:07:33;;;;;;;5.65;2.22;;;;;;;;;;4994949;28;20022;-61
2023/06/28 09:09:58;;;;;;;5.45;2.13;;;;;;;;;;4994277;28;20494;-63
2023/06/28 09:12:24;;;;;;;7.45;2.42;;;;;;;;;;4995092;28;20030;-62
2023/06/28 09:14:49;;;;;;;11.60;2.30;;;;;;;;;;4995063;28;20018;-62
2023/06/28 09:17:15;;;;;;;4.60;1.52;;;;;;;;;;4994129;28;20493;-62
2023/06/28 09:19:40;;;;;;;6.35;2.10;;;;;;;;;;4995033;28;20490;-63
2023/06/28 09:22:08;;;;;;;6.90;2.03;;;;;;;;;;4993703;28;20022;-64
2023/06/28 09:24:34;;;;;;;6.40;2.00;;;;;;;;;;4993485;28;20407;-64
2023/06/28 09:27:03;;;;;;;6.95;2.10;;;;;;;;;;4993443;28;20017;-64
2023/06/28 09:29:29;;;;;;;6.10;2.03;;;;;;;;;;4994853;28;20022;-65
2023/06/28 09:31:54;;;;;;;6.30;1.70;;;;;;;;;;4994675;28;20453;-64
2023/06/28 09:34:23;;;;;;;5.70;1.80;;;;;;;;;;4994327;28;20423;-64
2023/06/28 09:36:55;;;;;;;3.75;1.35;;;;;;;;;;4994275;28;20030;-64
2023/06/28 09:39:20;;;;;;;6.90;1.88;;;;;;;;;;4994328;28;20027;-63
2023/06/28 09:41:47;;;;;;;5.00;1.40;;;;;;;;;;4992095;28;20439;-64
2023/06/28 09:44:13;;;;;;;4.03;1.40;;;;;;;;;;4994039;28;20518;-63
2023/06/28 09:46:45;;;;;;;4.60;1.60;;;;;;;;;;4994225;28;20097;-63
2023/06/28 09:49:20;;;;;;;5.15;1.50;;;;;;;;;;4993818;28;20026;-64
2023/06/28 09:51:54;;;;;;;4.68;1.50;;;;;;;;;;4994229;28;20027;-64
2023/06/28 09:54:19;;;;;;;4.88;1.33;;;;;;;;;;4993594;28;20080;-64
2023/06/28 09:56:44;;;;;;;7.78;1.50;;;;;;;;;;4994449;28;20019;-64
2023/06/28 09:59:10;;;;;;;4.97;1.63;;;;;;;;;;4993776;28;20021;-64
2023/06/28 10:01:37;;;;;;;4.63;1.30;;;;;;;;;;4994032;28;20026;-64
2023/06/28 10:04:05;;;;;;;7.07;1.75;;;;;;;;;;4993918;28;20124;-64
2023/06/28 10:06:31;;;;;;;5.28;1.70;;;;;;;;;;4993890;28;20019;-64
2023/06/28 10:08:57;;;;;;;7.55;1.83;;;;;;;;;;4994153;28;20093;-64
2023/06/28 10:11:23;;;;;;;3.70;1.38;;;;;;;;;;4993894;28;20022;-64
2023/06/28 10:13:49;;;;;;;3.88;1.40;;;;;;;;;;4993711;28;20022;-63
2023/06/28 10:16:15;;;;;;;7.45;1.30;;;;;;;;;;4993359;28;20085;-63
2023/06/28 10:18:43;;;;;;;7.68;1.60;;;;;;;;;;4994302;28;20093;-64
2023/06/28 10:21:09;;;;;;;5.20;1.20;;;;;;;;;;4993629;28;20025;-63
2023/06/28 10:23:35;;;;;;;4.97;1.27;;;;;;;;;;4993492;28;20505;-63
2023/06/28 10:26:02;;;;;;;5.57;1.33;;;;;;;;;;4994029;28;20133;-64
2023/06/28 10:28:29;;;;;;;9.40;1.48;;;;;;;;;;4993746;28;20022;-63
2023/06/28 10:30:55;;;;;;;6.95;1.33;;;;;;;;;;4993746;28;20053;-64
2023/06/28 10:33:23;;;;;;;9.35;2.15;;;;;;;;;;4993033;28;20482;-63
2023/06/28 10:35:48;;;;;;;5.10;1.33;;;;;;;;;;4993813;28;20023;-63
2023/06/28 10:38:14;;;;;;;4.10;1.40;;;;;;;;;;4993948;28;20033;-63
2023/06/28 10:40:39;;;;;;;3.83;1.40;;;;;;;;;;4993539;28;20106;-63
2023/06/28 10:43:05;;;;;;;6.28;1.58;;;;;;;;;;4993277;28;20537;-63
2023/06/28 10:45:34;;;;;;;14.18;1.67;;;;;;;;;;4993851;28;20054;-63
2023/06/28 10:47:59;;;;;;;4.95;1.52;;;;;;;;;;4993460;28;20080;-63
2023/06/28 10:50:25;;;;;;;5.35;1.75;;;;;;;;;;4993131;28;20034;-63
2023/06/28 10:52:57;;;;;;;4.90;1.50;;;;;;;;;;4993602;28;20058;-63
2023/06/28 10:55:29;;;;;;;5.85;1.70;;;;;;;;;;4992499;28;20077;-62
2023/06/28 10:58:05;;;;;;;6.40;1.92;;;;;;;;;;4993470;28;20057;-62
2023/06/28 11:00:56;;;;;;;5.15;1.80;;;;;;;;;;4993434;28;20015;-63
2023/06/28 11:03:23;;;;;;;7.18;2.30;;;;;;;;;;4992049;28;20114;-64
2023/06/28 11:05:55;;;;;;;5.80;2.00;;;;;;;;;;4993551;28;20447;-64
2023/06/28 11:08:21;;;;;;;10.43;2.55;;;;;;;;;;4996541;28;20085;-63
2023/06/28 11:10:48;;;;;;;6.47;2.40;;;;;;;;;;4997453;28;20352;-64
2023/06/28 11:13:15;;;;;;;6.25;2.92;;;;;;;;;;4997093;28;20494;-64
2023/06/28 11:15:44;;;;;;;6.72;2.60;;;;;;;;;;4997018;28;20054;-64
2023/06/28 11:18:18;;;;;;;6.13;2.60;;;;;;;;;;4997328;28;20481;-63
2023/06/28 11:20:50;;;;;;;8.30;2.90;;;;;;;;;;4997217;28;20069;-63
2023/06/28 11:23:22;;;;;;;6.90;3.35;;;;;;;;;;4996881;28;20038;-64
2023/06/28 11:25:47;;;;;;;14.82;3.30;;;;;;;;;;4995697;28;20467;-64
2023/06/28 11:28:13;;;;;;;6.93;2.90;;;;;;;;;;4996769;28;20033;-64
2023/06/28 11:30:48;;;;;;;6.45;3.10;;;;;;;;;;4996371;28;20025;-64
2023/06/28 11:33:13;;;;;;;7.40;3.05;;;;;;;;;;4996879;28;20022;-64
2023/06/28 11:35:39;;;;;;;7.43;2.88;;;;;;;;;;4996616;28;20505;-64
2023/06/28 11:38:05;;;;;;;6.38;3.35;;;;;;;;;;4996736;28;20027;-64
2023/06/28 11:40:31;;;;;;;7.93;2.75;;;;;;;;;;4996649;28;20038;-63
2023/06/28 11:42:56;;;;;;;6.32;2.80;;;;;;;;;;4996275;28;20026;-64
2023/06/28 11:45:21;;;;;;;8.73;2.97;;;;;;;;;;4995325;28;20018;-64
2023/06/28 11:47:47;;;;;;;8.23;2.45;;;;;;;;;;4995584;28;20037;-65
2023/06/28 11:50:12;;;;;;;6.60;2.55;;;;;;;;;;4996407;28;20026;-64
2023/06/28 11:52:37;;;;;;;9.55;2.97;;;;;;;;;;4996495;28;20106;-65
2023/06/28 11:55:03;;;;;;;9.02;3.00;;;;;;;;;;4996481;28;20022;-64
2023/06/28 11:57:28;;;;;;;7.68;3.15;;;;;;;;;;4996445;28;20420;-64
2023/06/28 11:59:53;;;;;;;8.93;2.97;;;;;;;;;;4995923;28;20105;-65
2023/06/28 12:02:19;;;;;;;10.18;3.00;;;;;;;;;;4996386;28;20018;-64
2023/06/28 12:04:53;;;;;;;6.90;2.80;;;;;;;;;;4996413;28;20033;-64
2023/06/28 12:07:21;;;;;;;6.18;2.58;;;;;;;;;;4996009;28;20050;-64
2023/06/28 12:09:46;;;;;;;6.43;2.40;;;;;;;;;;4996025;28;20026;-64
2023/06/28 12:12:11;;;;;;;5.07;2.42;;;;;;;;;;4996278;28;20097;-64
2023/06/28 12:14:44;;;;;;;5.78;2.40;;;;;;;;;;4996214;28;20044;-65
2023/06/28 12:17:10;;;;;;;7.35;2.50;;;;;;;;;;4995354;28;20022;-64
2023/06/28 12:19:35;;;;;;;8.27;2.63;;;;;;;;;;4995615;28;20493;-64
2023/06/28 12:22:02;;;;;;;8.13;2.35;;;;;;;;;;4995452;28;20045;-64
2023/06/28 12:24:27;;;;;;;5.05;2.00;;;;;;;;;;4995637;28;20054;-64
2023/06/28 12:26:54;;;;;;;6.43;2.30;;;;;;;;;;4996063;28;20045;-64
2023/06/28 12:29:20;;;;;;;5.05;2.22;;;;;;;;;;4995919;28;20027;-64
2023/06/28 12:31:47;;;;;;;5.72;2.50;;;;;;;;;;4995696;28;20500;-64
2023/06/28 12:34:24;;;;;;;4.90;2.03;;;;;;;;;;4994857;28;20033;-64
2023/06/28 12:36:51;;;;;;;6.53;2.30;;;;;;;;;;4995506;28;20018;-64
2023/06/28 12:39:20;;;;;;;5.95;2.00;;;;;;;;;;4992824;28;20359;-64
2023/06/28 12:42:01;;;;;;;5.78;2.30;;;;;;;;;;4995185;28;20022;-64
2023/06/28 12:44:27;;;;;;;6.28;2.53;;;;;;;;;;4994271;28;20026;-64
2023/06/28 12:46:52;;;;;;;6.45;2.28;;;;;;;;;;4995357;28;20033;-64
2023/06/28 12:49:21;;;;;;;6.60;2.38;;;;;;;;;;4993975;28;20030;-64
2023/06/28 12:51:46;;;;;;;6.32;2.50;;;;;;;;;;4993306;28;20436;-64
2023/06/28 12:54:13;;;;;;;6.68;2.30;;;;;;;;;;4993551;28;20057;-64
2023/06/28 12:56:39;;;;;;;5.03;2.05;;;;;;;;;;4994282;28;20025;-64
2023/06/28 13:01:33;;;;;;;6.97;2.00;;;;;;;;;;4995306;28;20378;-64
2023/06/28 13:03:58;;;;;;;5.97;1.80;;;;;;;;;;4994920;28;20098;-64
2023/06/28 13:06:24;;;;;;;7.88;2.00;;;;;;;;;;4994215;28;20051;-64
2023/06/28 13:08:51;;;;;;;4.97;1.83;;;;;;;;;;4995271;28;20027;-64
2023/06/28 13:11:16;;;;;;;5.32;2.15;;;;;;;;;;4995092;28;20019;-64
2023/06/28 13:13:42;;;;;;;5.78;2.40;;;;;;;;;;4994656;28;20053;-63
2023/06/28 13:16:07;;;;;;;4.75;2.00;;;;;;;;;;4994762;28;20421;-63
2023/06/28 13:18:32;;;;;;;5.05;2.05;;;;;;;;;;4994784;28;20026;-64
2023/06/28 13:20:58;;;;;;;5.30;1.90;;;;;;;;;;4994175;28;20014;-64
2023/06/28 13:23:23;;;;;;;8.77;2.20;;;;;;;;;;4993759;28;20287;-64
2023/06/28 13:25:48;;;;;;;4.60;1.92;;;;;;;;;;4994752;28;20069;-63
2023/06/28 13:28:14;;;;;;;7.65;2.45;;;;;;;;;;4994613;28;20423;-64
2023/06/28 13:30:39;;;;;;;6.32;2.30;;;;;;;;;;4993269;28;20046;-64
2023/06/28 13:33:05;;;;;;;6.53;2.42;;;;;;;;;;4994787;28;20104;-65
2023/06/28 13:35:30;;;;;;;5.75;2.38;;;;;;;;;;4994636;28;20382;-64
2023/06/28 13:37:55;;;;;;;7.15;2.25;;;;;;;;;;4994746;28;20466;-64
2023/06/28 13:40:21;;;;;;;7.70;2.28;;;;;;;;;;4993821;28;20030;-65
2023/06/28 13:42:46;;;;;;;6.63;2.00;;;;;;;;;;4993779;28;20026;-65
2023/06/28 13:45:12;;;;;;;6.43;2.17;;;;;;;;;;4994260;28;20027;-64
2023/06/28 13:47:37;;;;;;;5.80;1.98;;;;;;;;;;4994345;28;20134;-63
2023/06/28 13:50:04;;;;;;;5.10;1.90;;;;;;;;;;4994400;28;20081;-63
2023/06/28 13:52:30;;;;;;;6.63;2.05;;;;;;;;;;4993998;28;20022;-64
2023/06/28 13:54:55;;;;;;;6.13;2.00;;;;;;;;;;4993357;28;20026;-63
2023/06/28 13:57:22;;;;;;;5.80;1.80;;;;;;;;;;4992364;28;20077;-64
2023/06/28 13:59:48;;;;;;;5.35;2.00;;;;;;;;;;4993268;28;20467;-64
2023/06/28 14:02:13;;;;;;;6.10;2.85;;;;;;;;;;4992428;28;20028;-63
2023/06/28 14:04:39;;;;;;;5.32;2.20;;;;;;;;;;4993003;28;20398;-64
2023/06/28 14:07:08;;;;;;;5.20;1.90;;;;;;;;;;4994316;28;20030;-64
2023/06/28 14:09:33;;;;;;;7.20;2.30;;;;;;;;;;4992964;28;20390;-64
2023/06/28 14:11:58;;;;;;;8.00;3.67;;;;;;;;;;4993416;28;20018;-64
2023/06/28 14:14:24;;;;;;;3.97;1.77;;;;;;;;;;4993042;28;20026;-64
2023/06/28 14:16:49;;;;;;;5.97;1.98;;;;;;;;;;4993839;28;20029;-64
2023/06/28 14:19:14;;;;;;;6.38;2.05;;;;;;;;;;4993782;28;20406;-64
2023/06/28 14:21:40;;;;;;;7.47;2.53;;;;;;;;;;4994108;28;20014;-63
2023/06/28 14:24:05;;;;;;;4.47;2.17;;;;;;;;;;4993616;28;20053;-63
2023/06/28 14:26:30;;;;;;;7.70;3.55;;;;;;;;;;4993738;28;20049;-63
2023/06/28 14:28:56;;;;;;;10.07;4.80;;;;;;;;;;4993576;28;20030;-64
2023/06/28 14:31:21;;;;;;;5.60;2.90;;;;;;;;;;4993045;28;20475;-64